aviador You're here:

KLDJ Decoded Metar

in _UNIDENTIFIED
Report Time2017-07-26 22:15:00
UTC Time2017-07-26 22:30:42
Flight Rules vfr VFR
Wind150° at 06 kt
W.Decomp.*RWY 09: 1.8 kt HW 5.7 kt RCW
W.Rank150° ranks 10
Current wind is below 150° avg. (6.2)
Visibility9999 m
Phenomena:N/A
Clouds:N/A
Expected CloudBase > 6,400 ft AGL from Temp-Dew spread
CeilingNone
Temp25°C (ISA +10)
Dew Point09°C (36% RH)
AAT22.6°C
QNH1021 hPa
Density Alt1,076 ft
Elevation23 ft
Report Wrong Elevation
Raw Report
KLDJ 262215Z AUTO 15006KT 10SM CLR 25/09 A3015 RMK AO2
T02460088=

Extra information for KLDJ:More info

Metar Taf Metar & Taf Last 4 Metars F.Rules Stats Wind Profile Meteogram Temp Stats Metar ALERT Operation Metar Decoded Social comments